createdAt,value
2023-02-07T00:01:17.988Z,9.32
2023-02-07T00:03:45.674Z,9.40
2023-02-07T00:06:19.061Z,8.50
2023-02-07T00:08:45.611Z,9.52
2023-02-07T00:11:17.454Z,9.35
2023-02-07T00:13:44.890Z,9.40
2023-02-07T00:16:12.298Z,8.45
2023-02-07T00:18:39.066Z,7.72
2023-02-07T00:21:08.483Z,9.00
2023-02-07T00:23:36.476Z,8.52
2023-02-07T00:26:04.550Z,8.38
2023-02-07T00:28:31.391Z,8.45
2023-02-07T00:31:04.469Z,8.48
2023-02-07T00:33:31.029Z,8.40
2023-02-07T00:35:59.285Z,8.65
2023-02-07T00:38:25.721Z,8.73
2023-02-07T00:40:52.238Z,8.50
2023-02-07T00:43:29.034Z,8.85
2023-02-07T00:45:59.427Z,8.68
2023-02-07T00:48:27.787Z,8.95
2023-02-07T00:50:54.575Z,8.55
2023-02-07T00:53:21.562Z,9.27
2023-02-07T00:55:48.019Z,8.77
2023-02-07T00:58:14.711Z,9.38
2023-02-07T01:00:41.123Z,8.85
2023-02-07T01:03:07.572Z,8.48
2023-02-07T01:05:34.047Z,9.30
2023-02-07T01:08:00.784Z,8.55
2023-02-07T01:10:27.332Z,9.27
2023-02-07T01:12:53.715Z,8.82
2023-02-07T01:15:20.673Z,8.45
2023-02-07T01:17:47.032Z,8.30
2023-02-07T01:20:15.584Z,8.30
2023-02-07T01:22:42.179Z,8.07
2023-02-07T01:25:09.220Z,7.30
2023-02-07T01:27:36.382Z,7.22
2023-02-07T01:30:04.011Z,7.90
2023-02-07T01:32:32.416Z,8.32
2023-02-07T01:34:58.947Z,7.78
2023-02-07T01:37:25.341Z,7.78
2023-02-07T01:39:53.122Z,8.10
2023-02-07T01:42:19.540Z,7.65
2023-02-07T01:44:46.003Z,9.00
2023-02-07T01:47:17.825Z,8.27
2023-02-07T01:49:46.616Z,7.93
2023-02-07T01:52:17.665Z,8.13
2023-02-07T01:54:49.708Z,8.57
2023-02-07T01:57:19.458Z,6.63
2023-02-07T01:59:48.697Z,9.02
2023-02-07T02:02:17.467Z,8.93
2023-02-07T02:04:55.674Z,10.23
2023-02-07T02:07:23.067Z,9.30
2023-02-07T02:09:50.633Z,9.55
2023-02-07T02:12:37.658Z,9.85
2023-02-07T02:15:26.177Z,8.88
2023-02-07T02:18:27.160Z,9.30
2023-02-07T02:21:33.249Z,8.60
2023-02-07T02:23:59.571Z,8.65
2023-02-07T02:26:49.605Z,8.40
2023-02-07T02:29:29.398Z,8.82
2023-02-07T02:32:35.006Z,9.52
2023-02-07T02:35:08.788Z,7.93
2023-02-07T02:37:48.124Z,9.23
2023-02-07T02:40:41.644Z,8.35
2023-02-07T02:43:13.228Z,8.45
2023-02-07T02:45:44.628Z,8.05
2023-02-07T02:48:12.815Z,7.20
2023-02-07T02:50:39.720Z,7.05
2023-02-07T02:53:07.114Z,7.68
2023-02-07T02:56:21.905Z,7.40
2023-02-07T02:59:01.161Z,7.10
2023-02-07T03:01:39.643Z,6.47
2023-02-07T03:04:24.458Z,6.50
2023-02-07T03:07:09.275Z,6.28
2023-02-07T03:09:49.301Z,6.10
2023-02-07T03:12:26.955Z,5.97
2023-02-07T03:15:11.887Z,5.25
2023-02-07T03:17:58.340Z,5.60
2023-02-07T03:20:59.167Z,6.30
2023-02-07T03:23:29.205Z,5.32
2023-02-07T03:26:00.222Z,5.30
2023-02-07T03:28:30.180Z,5.97
2023-02-07T03:31:02.850Z,5.88
2023-02-07T03:33:29.439Z,5.13
2023-02-07T03:36:17.437Z,5.68
2023-02-07T03:38:43.998Z,5.32
2023-02-07T03:41:24.313Z,5.28
2023-02-07T03:43:52.640Z,5.45
2023-02-07T03:46:22.798Z,5.18
2023-02-07T03:48:49.323Z,4.82
2023-02-07T03:51:17.703Z,4.80
2023-02-07T03:53:44.111Z,5.07
2023-02-07T03:56:11.652Z,4.68
2023-02-07T03:58:38.001Z,5.50
2023-02-07T04:01:05.740Z,5.30
2023-02-07T04:03:32.257Z,5.03
2023-02-07T04:06:00.713Z,4.85
2023-02-07T04:08:27.130Z,5.20
2023-02-07T04:11:01.187Z,4.95
2023-02-07T04:13:29.479Z,5.00
2023-02-07T04:15:56.545Z,5.20
2023-02-07T04:18:23.370Z,4.88
2023-02-07T04:20:49.748Z,5.13
2023-02-07T04:23:17.572Z,4.97
2023-02-07T04:25:43.979Z,4.90
2023-02-07T04:28:11.821Z,4.95
2023-02-07T04:30:38.292Z,5.38
2023-02-07T04:33:05.638Z,4.75
2023-02-07T04:35:32.105Z,4.85
2023-02-07T04:38:00.048Z,4.78
2023-02-07T04:40:26.798Z,5.00
2023-02-07T04:42:54.380Z,4.90
2023-02-07T04:45:20.822Z,4.80
2023-02-07T04:47:48.849Z,4.68
2023-02-07T04:50:15.393Z,4.32
2023-02-07T04:52:43.154Z,5.00
2023-02-07T04:55:09.971Z,5.25
2023-02-07T04:57:37.000Z,4.45
2023-02-07T05:00:04.589Z,4.45
2023-02-07T05:02:31.719Z,5.30
2023-02-07T05:04:58.115Z,5.03
2023-02-07T05:07:25.701Z,4.93
2023-02-07T05:09:53.495Z,4.97
2023-02-07T05:12:22.857Z,4.88
2023-02-07T05:14:49.288Z,4.30
2023-02-07T05:17:15.728Z,4.93
2023-02-07T05:19:42.211Z,4.97
2023-02-07T05:22:08.830Z,4.78
2023-02-07T05:24:35.278Z,4.75
2023-02-07T05:27:01.739Z,4.82
2023-02-07T05:29:28.182Z,5.57
2023-02-07T05:32:13.127Z,5.72
2023-02-07T05:34:39.550Z,5.25
2023-02-07T05:37:06.013Z,5.70
2023-02-07T05:39:32.476Z,5.75
2023-02-07T05:41:59.080Z,5.38
2023-02-07T05:44:25.531Z,5.78
2023-02-07T05:46:52.748Z,7.00
2023-02-07T05:49:19.411Z,5.90
2023-02-07T05:51:45.875Z,6.15
2023-02-07T05:54:12.335Z,6.00
2023-02-07T05:56:38.751Z,6.10
2023-02-07T05:59:05.422Z,6.65
2023-02-07T06:01:31.869Z,6.88
2023-02-07T06:03:58.378Z,6.15
2023-02-07T06:06:24.877Z,6.88
2023-02-07T06:08:51.318Z,7.50
2023-02-07T06:11:17.844Z,7.20
2023-02-07T06:13:45.537Z,6.80
2023-02-07T06:16:12.133Z,8.05
2023-02-07T06:18:38.946Z,8.30
2023-02-07T06:21:05.897Z,8.82
2023-02-07T06:23:32.363Z,7.22
2023-02-07T06:25:58.770Z,7.10
2023-02-07T06:28:25.232Z,6.80
2023-02-07T06:30:53.373Z,7.70
2023-02-07T06:33:20.291Z,7.30
2023-02-07T06:35:47.418Z,7.38
2023-02-07T06:38:18.410Z,6.97
2023-02-07T06:40:45.205Z,7.22
2023-02-07T06:43:12.307Z,6.70
2023-02-07T06:45:39.120Z,7.28
2023-02-07T06:48:06.317Z,7.03
2023-02-07T06:50:32.831Z,7.25
2023-02-07T06:53:02.018Z,6.45
2023-02-07T06:55:29.975Z,8.15
2023-02-07T06:57:56.535Z,8.32
2023-02-07T07:00:24.098Z,7.57
2023-02-07T07:02:51.380Z,8.10
2023-02-07T07:05:17.902Z,7.38
2023-02-07T07:07:44.792Z,7.78
2023-02-07T07:10:11.397Z,8.55
2023-02-07T07:12:37.858Z,8.15
2023-02-07T07:15:05.091Z,7.82
2023-02-07T07:17:31.649Z,8.27
2023-02-07T07:19:58.850Z,7.93
2023-02-07T07:22:25.807Z,7.68
2023-02-07T07:24:52.266Z,8.48
2023-02-07T07:27:19.006Z,8.50
2023-02-07T07:29:45.777Z,8.60
2023-02-07T07:32:17.780Z,9.25
2023-02-07T07:34:51.591Z,7.68
2023-02-07T07:37:18.109Z,8.15
2023-02-07T07:39:44.613Z,8.02
2023-02-07T07:42:12.010Z,7.97
2023-02-07T07:44:38.715Z,7.40
2023-02-07T07:47:05.174Z,9.13
2023-02-07T07:49:31.859Z,7.88
2023-02-07T07:51:58.520Z,8.35
2023-02-07T07:54:25.015Z,9.00
2023-02-07T07:56:51.724Z,7.72
2023-02-07T07:59:23.918Z,7.50
2023-02-07T08:01:50.806Z,7.10
2023-02-07T08:04:17.266Z,7.68
2023-02-07T08:06:43.755Z,8.00
2023-02-07T08:09:10.316Z,7.82
2023-02-07T08:11:36.754Z,8.32
2023-02-07T08:14:03.491Z,8.35
2023-02-07T08:16:29.991Z,8.98
2023-02-07T08:18:56.508Z,9.90
2023-02-07T08:21:23.041Z,8.75
2023-02-07T08:23:49.450Z,8.55
2023-02-07T08:26:15.874Z,9.30
2023-02-07T08:28:42.313Z,8.57
2023-02-07T08:31:08.840Z,8.75
2023-02-07T08:33:35.298Z,9.63
2023-02-07T08:36:01.798Z,8.85
2023-02-07T08:38:28.246Z,8.57
2023-02-07T08:40:54.696Z,9.00
2023-02-07T08:43:21.220Z,9.65
2023-02-07T08:45:48.722Z,9.52
2023-02-07T08:48:15.460Z,9.30
2023-02-07T08:50:41.958Z,9.90
2023-02-07T08:53:08.483Z,9.90
2023-02-07T08:55:35.005Z,9.88
2023-02-07T08:58:01.571Z,10.20
2023-02-07T09:00:29.292Z,10.18
2023-02-07T09:02:55.740Z,9.55
2023-02-07T09:05:22.194Z,9.38
2023-02-07T09:07:48.677Z,10.55
2023-02-07T09:10:15.496Z,10.40
2023-02-07T09:12:42.062Z,9.88
2023-02-07T09:15:09.044Z,9.73
2023-02-07T09:17:35.546Z,10.20
2023-02-07T09:20:02.130Z,10.75
2023-02-07T09:22:28.687Z,10.57
2023-02-07T09:24:57.220Z,9.88
2023-02-07T09:27:25.271Z,10.00
2023-02-07T09:29:51.669Z,11.18
2023-02-07T09:32:18.143Z,10.57
2023-02-07T09:34:44.732Z,10.77
2023-02-07T09:37:11.252Z,10.50
2023-02-07T09:39:38.901Z,11.07
2023-02-07T09:42:27.918Z,11.25
2023-02-07T09:45:07.413Z,9.98
2023-02-07T09:47:39.103Z,10.70
2023-02-07T09:50:37.396Z,10.82
2023-02-07T09:53:16.588Z,11.10
2023-02-07T09:55:50.305Z,11.50
2023-02-07T09:58:43.772Z,11.45
2023-02-07T10:01:15.430Z,10.38
2023-02-07T10:04:13.647Z,10.63
2023-02-07T10:06:44.060Z,10.15
2023-02-07T10:09:15.861Z,11.18
2023-02-07T10:11:48.430Z,10.98
2023-02-07T10:14:35.847Z,10.40
2023-02-07T10:17:31.020Z,9.45
2023-02-07T10:20:23.308Z,9.90
2023-02-07T10:23:04.174Z,9.82
2023-02-07T10:26:02.602Z,10.63
2023-02-07T10:28:44.756Z,8.75
2023-02-07T10:31:16.371Z,9.32
2023-02-07T10:33:51.942Z,9.38
2023-02-07T10:36:19.291Z,9.80
2023-02-07T10:39:08.094Z,8.60
2023-02-07T10:41:38.599Z,8.32
2023-02-07T10:44:09.329Z,9.23
2023-02-07T10:46:37.511Z,8.98
2023-02-07T10:49:04.002Z,8.00
2023-02-07T10:51:38.594Z,8.07
2023-02-07T10:54:08.825Z,8.48
2023-02-07T10:56:43.170Z,8.23
2023-02-07T10:59:32.079Z,7.75
2023-02-07T11:01:59.451Z,7.10
2023-02-07T11:04:42.713Z,7.43
2023-02-07T11:09:42.031Z,6.82
2023-02-07T11:14:42.762Z,7.55
2023-02-07T11:17:21.270Z,7.60
2023-02-07T11:19:47.869Z,7.30
2023-02-07T11:22:19.057Z,7.90
2023-02-07T11:24:47.177Z,7.80
2023-02-07T11:27:21.573Z,7.75
2023-02-07T11:29:59.652Z,7.43
2023-02-07T11:32:28.249Z,7.43
2023-02-07T11:35:01.534Z,7.18
2023-02-07T11:37:37.007Z,7.28
2023-02-07T11:40:28.215Z,7.18
2023-02-07T11:43:02.204Z,6.40
2023-02-07T11:45:31.235Z,7.32
2023-02-07T11:47:58.684Z,7.18
2023-02-07T11:50:30.830Z,7.50
2023-02-07T11:53:00.156Z,6.00
2023-02-07T11:55:32.790Z,6.03
2023-02-07T11:58:07.541Z,5.97
2023-02-07T12:00:37.361Z,6.22
2023-02-07T12:03:08.990Z,5.78
2023-02-07T12:05:42.647Z,5.47
2023-02-07T12:08:17.554Z,4.90
2023-02-07T12:10:49.267Z,4.68
2023-02-07T12:13:46.429Z,4.53
2023-02-07T12:16:23.015Z,4.38
2023-02-07T12:18:55.948Z,5.15
2023-02-07T12:21:30.837Z,4.18
2023-02-07T12:24:01.330Z,4.15
2023-02-07T12:26:32.722Z,4.03
2023-02-07T12:29:23.438Z,4.00
2023-02-07T12:32:27.652Z,3.90
2023-02-07T12:35:27.488Z,3.80
2023-02-07T12:38:03.116Z,3.70
2023-02-07T12:40:34.050Z,3.63
2023-02-07T12:43:30.126Z,2.95
2023-02-07T12:46:02.568Z,3.38
2023-02-07T12:48:47.639Z,3.20
2023-02-07T12:51:19.994Z,3.40
2023-02-07T12:53:51.153Z,3.47
2023-02-07T12:56:45.659Z,3.38
2023-02-07T12:59:18.214Z,3.90
2023-02-07T13:01:47.215Z,3.67
2023-02-07T13:04:43.576Z,3.70
2023-02-07T13:07:16.077Z,3.47
2023-02-07T13:10:12.417Z,3.85
2023-02-07T13:13:03.259Z,3.70
2023-02-07T13:15:38.865Z,3.70
2023-02-07T13:18:22.133Z,3.58
2023-02-07T13:21:05.907Z,3.58
2023-02-07T13:23:36.065Z,3.60
2023-02-07T13:26:08.816Z,4.18
2023-02-07T13:28:46.691Z,3.40
2023-02-07T13:31:20.404Z,3.15
2023-02-07T13:33:48.993Z,3.70
2023-02-07T13:36:21.214Z,4.25
2023-02-07T13:39:11.754Z,3.97
2023-02-07T13:42:03.040Z,3.72
2023-02-07T13:44:53.669Z,3.67
2023-02-07T13:47:38.920Z,3.85
2023-02-07T13:50:15.291Z,4.28
2023-02-07T13:52:48.623Z,3.72
2023-02-07T13:55:26.567Z,4.40
2023-02-07T13:58:12.367Z,4.30
2023-02-07T14:01:07.333Z,4.00
2023-02-07T14:03:35.238Z,3.50
2023-02-07T14:06:26.746Z,4.30
2023-02-07T14:09:17.644Z,4.13
2023-02-07T14:11:58.726Z,4.20
2023-02-07T14:14:28.231Z,3.80
2023-02-07T14:17:07.109Z,3.33
2023-02-07T14:19:40.491Z,3.55
2023-02-07T14:22:12.851Z,3.85
2023-02-07T14:25:08.366Z,3.72
2023-02-07T14:27:38.940Z,3.15
2023-02-07T14:30:27.276Z,3.65
2023-02-07T14:33:14.292Z,3.60
2023-02-07T14:36:04.841Z,3.47
2023-02-07T14:38:41.843Z,3.80
2023-02-07T14:41:17.322Z,3.70
2023-02-07T14:44:08.083Z,3.65
2023-02-07T14:46:40.728Z,3.53
2023-02-07T14:49:25.729Z,3.65
2023-02-07T14:52:00.892Z,3.25
2023-02-07T14:54:40.930Z,3.22
2023-02-07T14:57:27.436Z,3.42
2023-02-07T15:00:03.791Z,3.17
2023-02-07T15:02:31.681Z,3.20
2023-02-07T15:04:58.936Z,3.10
2023-02-07T15:07:25.332Z,3.03
2023-02-07T15:09:51.831Z,3.20
2023-02-07T15:12:27.290Z,3.33
2023-02-07T15:14:57.099Z,3.67
2023-02-07T15:17:33.401Z,3.50
2023-02-07T15:20:06.306Z,3.55
2023-02-07T15:22:33.098Z,3.10
2023-02-07T15:25:00.956Z,3.03
2023-02-07T15:27:29.681Z,3.35
2023-02-07T15:29:59.586Z,3.83
2023-02-07T15:32:40.829Z,3.95
2023-02-07T15:35:13.830Z,4.38
2023-02-07T15:37:40.492Z,3.90
2023-02-07T15:40:07.315Z,4.60
2023-02-07T15:42:33.907Z,4.20
2023-02-07T15:45:00.328Z,4.22
2023-02-07T15:47:32.061Z,4.38
2023-02-07T15:50:14.329Z,4.78
2023-02-07T15:52:44.628Z,4.10
2023-02-07T15:55:27.924Z,4.80
2023-02-07T16:00:36.780Z,4.13
2023-02-07T16:03:13.487Z,4.55
2023-02-07T16:05:41.681Z,4.70
2023-02-07T16:08:33.305Z,5.03
2023-02-07T16:11:22.285Z,4.30
2023-02-07T16:14:17.480Z,4.80
2023-02-07T16:16:53.008Z,4.75
2023-02-07T16:19:24.625Z,5.07
2023-02-07T16:22:01.227Z,5.22
2023-02-07T16:24:27.688Z,5.03
2023-02-07T16:26:55.734Z,4.72
2023-02-07T16:29:25.986Z,5.28
2023-02-07T16:31:54.713Z,5.07
2023-02-07T16:34:22.598Z,5.10
2023-02-07T16:36:58.091Z,5.53
2023-02-07T16:39:24.485Z,4.85
2023-02-07T16:42:00.894Z,5.47
2023-02-07T16:44:31.025Z,4.88
2023-02-07T16:46:57.906Z,5.28
2023-02-07T16:49:26.503Z,5.20
2023-02-07T16:51:54.536Z,5.20
2023-02-07T16:54:21.047Z,5.22
2023-02-07T16:56:54.326Z,6.15
2023-02-07T16:59:22.252Z,5.75
2023-02-07T17:01:51.506Z,6.00
2023-02-07T17:04:18.329Z,6.70
2023-02-07T17:06:45.520Z,6.63
2023-02-07T17:09:23.844Z,5.88
2023-02-07T17:11:51.771Z,6.28
